createdAt,value
2023-05-05T00:00:16.826Z,101244.53
2023-05-05T00:02:18.370Z,101241.81
2023-05-05T00:04:22.632Z,101245.38
2023-05-05T00:06:24.375Z,101242.34
2023-05-05T00:08:25.971Z,101242.34
2023-05-05T00:10:27.903Z,101238.16
2023-05-05T00:12:29.688Z,101228.34
2023-05-05T00:14:31.353Z,101227.34
2023-05-05T00:16:33.484Z,101233.59
2023-05-05T00:18:35.154Z,101224.66
2023-05-05T00:20:36.838Z,101233.28
2023-05-05T00:22:38.452Z,101236.97
2023-05-05T00:24:40.176Z,101243.22
2023-05-05T00:26:41.732Z,101242.22
2023-05-05T00:28:43.760Z,101241.38
2023-05-05T00:30:45.466Z,101236.81
2023-05-05T00:32:50.151Z,101238.81
2023-05-05T00:34:51.918Z,101227.34
2023-05-05T00:36:53.950Z,101222.63
2023-05-05T00:38:55.449Z,101219.91
2023-05-05T00:40:57.002Z,101214.38
2023-05-05T00:42:59.562Z,101222.31
2023-05-05T00:45:01.129Z,101215.22
2023-05-05T00:47:05.050Z,101217.94
2023-05-05T00:49:06.890Z,101213.53
2023-05-05T00:51:10.277Z,101216.91
2023-05-05T00:53:12.038Z,101217.94
2023-05-05T00:55:13.792Z,101221.47
2023-05-05T00:57:15.540Z,101227.88
2023-05-05T00:59:17.611Z,101228.03
2023-05-05T01:01:19.617Z,101238.69
2023-05-05T01:03:21.359Z,101227.88
2023-05-05T01:05:23.991Z,101238.50
2023-05-05T01:07:43.649Z,101232.25
2023-05-05T01:10:24.186Z,101233.09
2023-05-05T01:12:44.279Z,101235.81
2023-05-05T01:15:01.770Z,101236.66
2023-05-05T01:17:10.604Z,101229.56
2023-05-05T01:19:33.301Z,101221.47
2023-05-05T01:21:41.328Z,101223.31
2023-05-05T01:24:04.443Z,101223.31
2023-05-05T01:26:30.696Z,101210.84
2023-05-05T01:28:49.697Z,101206.97
2023-05-05T01:31:03.362Z,101210.66
2023-05-05T01:33:08.634Z,101211.50
2023-05-05T01:35:16.085Z,101214.06
2023-05-05T01:37:27.800Z,101211.38
2023-05-05T01:39:31.760Z,101207.97
2023-05-05T01:41:45.464Z,101208.81
2023-05-05T01:43:49.855Z,101203.41
2023-05-05T01:45:51.663Z,101202.56
2023-05-05T01:47:54.753Z,101189.91
2023-05-05T01:49:56.364Z,101189.78
2023-05-05T01:51:58.884Z,101188.94
2023-05-05T01:54:03.843Z,101188.75
2023-05-05T01:56:06.310Z,101193.31
2023-05-05T01:58:08.275Z,101191.63
2023-05-05T02:00:11.521Z,101202.44
2023-05-05T02:02:14.509Z,101204.44
2023-05-05T02:04:17.883Z,101206.28
2023-05-05T02:06:20.840Z,101211.69
2023-05-05T02:08:24.415Z,101211.50
2023-05-05T02:10:27.165Z,101212.34
2023-05-05T02:12:30.175Z,101210.53
2023-05-05T02:14:31.944Z,101198.84
2023-05-05T02:16:33.809Z,101202.44
2023-05-05T02:18:36.089Z,101202.25
2023-05-05T02:20:39.167Z,101205.13
2023-05-05T02:22:41.096Z,101208.66
2023-05-05T02:24:43.371Z,101204.25
2023-05-05T02:26:46.073Z,101212.34
2023-05-05T02:29:04.635Z,101218.78
2023-05-05T02:31:07.394Z,101236.34
2023-05-05T02:33:11.373Z,101230.09
2023-05-05T02:35:20.193Z,101241.91
2023-05-05T02:37:24.589Z,101237.34
2023-05-05T02:39:31.753Z,101237.34
2023-05-05T02:41:34.627Z,101234.81
2023-05-05T02:43:37.126Z,101225.72
2023-05-05T02:45:38.756Z,101235.50
2023-05-05T02:47:40.448Z,101239.22
2023-05-05T02:49:42.954Z,101231.25
2023-05-05T02:51:44.535Z,101225.84
2023-05-05T02:53:46.369Z,101222.16
2023-05-05T02:55:52.580Z,101227.72
2023-05-05T02:58:01.518Z,101225.00
2023-05-05T03:00:07.888Z,101227.56
2023-05-05T03:02:22.215Z,101218.63
2023-05-05T03:04:29.941Z,101218.44
2023-05-05T03:06:36.743Z,101223.16
2023-05-05T03:08:49.418Z,101227.41
2023-05-05T03:11:00.382Z,101218.44
2023-05-05T03:13:02.766Z,101220.31
2023-05-05T03:15:08.726Z,101205.13
2023-05-05T03:17:12.268Z,101204.97
2023-05-05T03:19:17.142Z,101201.25
2023-05-05T03:21:19.014Z,101201.09
2023-05-05T03:23:22.738Z,101193.84
2023-05-05T03:25:41.774Z,101192.16
2023-05-05T03:27:43.351Z,101198.53
2023-05-05T03:29:44.939Z,101197.69
2023-05-05T03:31:46.851Z,101206.81
2023-05-05T03:33:48.515Z,101209.50
2023-05-05T03:35:50.344Z,101222.00
2023-05-05T03:37:51.917Z,101224.69
2023-05-05T03:39:53.478Z,101222.69
2023-05-05T03:41:55.238Z,101229.78
2023-05-05T03:43:56.802Z,101229.94
2023-05-05T03:45:58.862Z,101235.34
2023-05-05T03:48:00.454Z,101237.19
2023-05-05T03:50:02.088Z,101237.19
2023-05-05T03:52:04.208Z,101243.59
2023-05-05T03:54:05.827Z,101253.53
2023-05-05T03:56:07.765Z,101249.84
2023-05-05T03:58:09.397Z,101235.50
2023-05-05T04:00:11.908Z,101244.28
2023-05-05T04:02:13.516Z,101239.72
2023-05-05T04:04:15.119Z,101243.28
2023-05-05T04:06:16.769Z,101244.13
2023-05-05T04:08:18.462Z,101252.38
2023-05-05T04:10:20.032Z,101251.53
2023-05-05T04:12:21.568Z,101263.19
2023-05-05T04:14:23.152Z,101257.94
2023-05-05T04:16:24.813Z,101255.22
2023-05-05T04:18:26.609Z,101256.25
2023-05-05T04:20:28.365Z,101254.38
2023-05-05T04:22:30.161Z,101253.38
2023-05-05T04:24:31.759Z,101256.94
2023-05-05T04:26:33.952Z,101255.94
2023-05-05T04:28:35.628Z,101262.34
2023-05-05T04:30:37.385Z,101255.22
2023-05-05T04:32:38.896Z,101263.19
2023-05-05T04:34:40.478Z,101267.75
2023-05-05T04:36:42.086Z,101262.34
2023-05-05T04:38:43.637Z,101265.03
2023-05-05T04:40:46.860Z,101272.28
2023-05-05T04:42:48.559Z,101265.88
2023-05-05T04:44:50.153Z,101267.75
2023-05-05T04:46:51.825Z,101282.09
2023-05-05T04:48:53.517Z,101282.22
2023-05-05T04:50:55.192Z,101276.81
2023-05-05T04:52:56.813Z,101275.13
2023-05-05T04:54:58.386Z,101283.25
2023-05-05T04:56:59.979Z,101278.53
2023-05-05T04:59:01.527Z,101274.13
2023-05-05T05:01:03.462Z,101279.53
2023-05-05T05:03:05.710Z,101279.53
2023-05-05T05:05:07.767Z,101279.53
2023-05-05T05:07:09.387Z,101285.09
2023-05-05T05:09:11.112Z,101285.09
2023-05-05T05:11:12.642Z,101292.03
2023-05-05T05:13:14.327Z,101286.78
2023-05-05T05:15:16.032Z,101292.03
2023-05-05T05:17:17.621Z,101290.31
2023-05-05T05:19:19.297Z,101283.06
2023-05-05T05:21:21.185Z,101281.25
2023-05-05T05:23:22.815Z,101279.53
2023-05-05T05:25:24.799Z,101285.78
2023-05-05T05:27:26.741Z,101285.78
2023-05-05T05:29:28.420Z,101288.63
2023-05-05T05:31:30.352Z,101288.63
2023-05-05T05:33:31.983Z,101295.91
2023-05-05T05:35:33.703Z,101292.19
2023-05-05T05:37:35.311Z,101300.13
2023-05-05T05:39:36.895Z,101299.13
2023-05-05T05:41:38.414Z,101305.53
2023-05-05T05:43:39.956Z,101304.66
2023-05-05T05:45:41.694Z,101306.69
2023-05-05T05:47:43.348Z,101310.22
2023-05-05T05:49:44.992Z,101316.47
2023-05-05T05:51:46.572Z,101299.75
2023-05-05T05:53:48.188Z,101312.09
2023-05-05T05:55:49.789Z,101308.25
2023-05-05T05:57:51.407Z,101321.56
2023-05-05T05:59:53.935Z,101321.75
2023-05-05T06:01:56.355Z,101317.31
2023-05-05T06:03:57.961Z,101319.34
2023-05-05T06:05:59.640Z,101317.50
2023-05-05T06:08:01.266Z,101324.75
2023-05-05T06:10:14.476Z,101324.75
2023-05-05T06:12:21.004Z,101327.44
2023-05-05T06:14:22.989Z,101324.75
2023-05-05T06:16:24.612Z,101323.91
2023-05-05T06:18:26.318Z,101332.69
2023-05-05T06:20:27.961Z,101337.94
2023-05-05T06:22:29.536Z,101341.47
2023-05-05T06:24:32.010Z,101340.78
2023-05-05T06:26:33.585Z,101340.94
2023-05-05T06:28:35.253Z,101344.63
2023-05-05T06:30:36.866Z,101345.63
2023-05-05T06:32:38.517Z,101341.91
2023-05-05T06:34:40.270Z,101338.25
2023-05-05T06:36:41.885Z,101336.38
2023-05-05T06:38:43.537Z,101336.38
2023-05-05T06:40:47.508Z,101333.81
2023-05-05T06:42:49.166Z,101326.59
2023-05-05T06:44:51.377Z,101332.38
2023-05-05T06:46:54.076Z,101323.72
2023-05-05T06:48:55.773Z,101315.81
2023-05-05T06:50:57.462Z,101319.66
2023-05-05T06:52:59.050Z,101319.47
2023-05-05T06:55:00.773Z,101318.50
2023-05-05T06:57:02.468Z,101313.78
2023-05-05T06:59:04.050Z,101320.03
2023-05-05T07:01:05.847Z,101323.72
2023-05-05T07:03:07.895Z,101325.59
2023-05-05T07:05:09.889Z,101325.28
2023-05-05T07:07:11.813Z,101329.97
2023-05-05T07:09:14.778Z,101336.22
2023-05-05T07:11:17.314Z,101338.06
2023-05-05T07:13:18.963Z,101332.69
2023-05-05T07:15:28.696Z,101339.75
2023-05-05T07:17:31.198Z,101332.69
2023-05-05T07:19:32.781Z,101342.47
2023-05-05T07:21:34.605Z,101350.56
2023-05-05T07:23:37.885Z,101349.41
2023-05-05T07:25:39.507Z,101343.34
2023-05-05T07:27:41.124Z,101333.38
2023-05-05T07:29:42.938Z,101327.97
2023-05-05T07:31:44.745Z,101336.22
2023-05-05T07:33:46.449Z,101329.84
2023-05-05T07:35:48.044Z,101313.78
2023-05-05T07:37:50.849Z,101320.88
2023-05-05T07:39:52.420Z,101336.09
2023-05-05T07:41:54.016Z,101331.66
2023-05-05T07:43:55.815Z,101320.72
2023-05-05T07:45:57.459Z,101311.63
2023-05-05T07:47:59.203Z,101310.78
2023-05-05T07:50:01.303Z,101309.09
2023-05-05T07:52:03.036Z,101318.34
2023-05-05T07:54:05.286Z,101320.81
2023-05-05T07:56:09.095Z,101318.72
2023-05-05T07:58:11.207Z,101311.72
2023-05-05T08:00:13.697Z,101328.31
2023-05-05T08:02:15.561Z,101327.94
2023-05-05T08:04:17.311Z,101328.69
2023-05-05T08:06:22.328Z,101337.38
2023-05-05T08:08:24.945Z,101350.63
2023-05-05T08:10:26.906Z,101344.97
2023-05-05T08:12:28.913Z,101350.28
2023-05-05T08:14:31.276Z,101351.66
2023-05-05T08:16:32.994Z,101347.94
2023-05-05T08:18:37.591Z,101348.53
2023-05-05T08:20:39.522Z,101356.22
2023-05-05T08:22:42.427Z,101353.53
2023-05-05T08:24:43.961Z,101354.13
2023-05-05T08:26:45.579Z,101355.72
2023-05-05T08:28:47.179Z,101357.16
2023-05-05T08:30:49.709Z,101354.19
2023-05-05T08:32:51.431Z,101357.03
2023-05-05T08:34:53.067Z,101358.03
2023-05-05T08:36:54.700Z,101350.53
2023-05-05T08:38:56.751Z,101351.78
2023-05-05T08:40:58.422Z,101354.03
2023-05-05T08:43:00.590Z,101356.59
2023-05-05T08:45:02.180Z,101355.19
2023-05-05T08:47:04.408Z,101344.13
2023-05-05T08:49:07.949Z,101348.41
2023-05-05T08:51:13.063Z,101347.69
2023-05-05T08:53:18.203Z,101351.94
2023-05-05T08:55:34.342Z,101347.00
2023-05-05T08:57:51.706Z,101346.41
2023-05-05T08:59:53.911Z,101356.75
2023-05-05T09:01:57.119Z,101349.53
2023-05-05T09:03:59.458Z,101353.22
2023-05-05T09:06:01.494Z,101349.25
2023-05-05T09:08:05.271Z,101345.41
2023-05-05T09:10:09.661Z,101351.94
2023-05-05T09:12:11.283Z,101361.00
2023-05-05T09:14:12.985Z,101353.78
2023-05-05T09:16:14.543Z,101351.09
2023-05-05T09:18:16.302Z,101367.66
2023-05-05T09:20:17.957Z,101352.38
2023-05-05T09:22:33.128Z,101353.50
2023-05-05T09:24:34.707Z,101354.91
2023-05-05T09:26:44.453Z,101358.03
2023-05-05T09:28:51.777Z,101362.88
2023-05-05T09:30:53.709Z,101358.16
2023-05-05T09:32:55.787Z,101352.09
2023-05-05T09:34:59.017Z,101347.41
2023-05-05T09:37:00.715Z,101346.13
2023-05-05T09:39:08.958Z,101351.09
2023-05-05T09:41:10.570Z,101352.09
2023-05-05T09:43:12.149Z,101351.09
2023-05-05T09:45:19.585Z,101347.13
2023-05-05T09:47:29.561Z,101344.16
2023-05-05T09:49:31.649Z,101336.34
2023-05-05T09:51:33.759Z,101331.69
2023-05-05T09:53:40.526Z,101334.38
2023-05-05T09:55:52.736Z,101333.38
2023-05-05T09:57:54.316Z,101325.88
2023-05-05T09:59:57.800Z,101325.03
2023-05-05T10:02:12.865Z,101324.88
2023-05-05T10:04:30.367Z,101314.09
2023-05-05T10:06:47.579Z,101309.31
2023-05-05T10:09:01.427Z,101306.03
2023-05-05T10:11:06.745Z,101299.81
2023-05-05T10:13:10.097Z,101302.66
2023-05-05T10:15:11.996Z,101304.91
2023-05-05T10:17:14.829Z,101308.88
2023-05-05T10:19:21.775Z,101305.34
2023-05-05T10:21:25.176Z,101297.84
2023-05-05T10:23:52.917Z,101299.81
2023-05-05T10:26:00.757Z,101289.47
2023-05-05T10:28:06.343Z,101282.13
2023-05-05T10:30:12.825Z,101290.19
2023-05-05T10:32:51.951Z,101292.00
2023-05-05T10:34:54.349Z,101286.22
2023-05-05T10:36:57.485Z,101284.81
2023-05-05T10:39:00.256Z,101283.25
2023-05-05T10:41:02.255Z,101277.13
2023-05-05T10:43:04.353Z,101280.28
2023-05-05T10:45:07.420Z,101279.44
2023-05-05T10:47:09.305Z,101271.66
2023-05-05T10:49:40.814Z,101280.41
2023-05-05T10:51:45.374Z,101277.56
2023-05-05T10:54:03.579Z,101271.63
2023-05-05T10:56:31.365Z,101270.75
2023-05-05T10:58:55.502Z,101266.94
2023-05-05T11:01:00.578Z,101269.34
2023-05-05T11:03:20.867Z,101271.16
2023-05-05T11:05:22.794Z,101269.59
2023-05-05T11:07:24.777Z,101259.41
2023-05-05T11:09:29.658Z,101259.97
2023-05-05T11:12:02.382Z,101256.31
2023-05-05T11:14:20.555Z,101253.75
2023-05-05T11:16:45.693Z,101253.06
2023-05-05T11:18:47.459Z,101247.81
2023-05-05T11:20:49.168Z,101243.16
2023-05-05T11:23:03.282Z,101235.50
2023-05-05T11:25:40.421Z,101242.03
2023-05-05T11:28:15.259Z,101236.22
2023-05-05T11:30:17.621Z,101239.75
2023-05-05T11:32:19.962Z,101240.03
2023-05-05T11:34:28.068Z,101234.25
2023-05-05T11:36:40.609Z,101238.47
2023-05-05T11:39:00.232Z,101233.25
2023-05-05T11:41:33.965Z,101235.66
2023-05-05T11:43:36.065Z,101230.97
2023-05-05T11:45:37.752Z,101234.94
2023-05-05T11:47:39.443Z,101219.78
2023-05-05T11:49:41.178Z,101228.13
2023-05-05T11:51:43.141Z,101220.78
2023-05-05T11:53:48.593Z,101216.66
2023-05-05T11:55:50.188Z,101211.56
2023-05-05T11:57:51.939Z,101205.91
2023-05-05T12:00:01.301Z,101210.16
2023-05-05T12:02:04.119Z,101201.25
2023-05-05T12:04:05.862Z,101200.25
2023-05-05T12:06:08.337Z,101198.69
2023-05-05T12:08:10.304Z,101195.72
2023-05-05T12:10:11.949Z,101202.94
2023-05-05T12:12:14.551Z,101203.78
2023-05-05T12:14:16.195Z,101193.47
2023-05-05T12:16:19.430Z,101197.84
2023-05-05T12:18:21.597Z,101195.31
2023-05-05T12:20:31.400Z,101186.25
2023-05-05T12:22:32.961Z,101193.47
2023-05-05T12:24:34.824Z,101186.97
2023-05-05T12:26:36.482Z,101199.97
2023-05-05T12:28:47.566Z,101197.84
2023-05-05T12:30:58.928Z,101198.28
2023-05-05T12:33:05.425Z,101181.97
2023-05-05T12:35:07.856Z,101187.09
2023-05-05T12:37:09.602Z,101182.44
2023-05-05T12:39:11.947Z,101175.06
2023-05-05T12:41:18.154Z,101178.31
2023-05-05T12:43:32.542Z,101168.41
2023-05-05T12:45:34.287Z,101177.88
2023-05-05T12:47:36.798Z,101171.94
2023-05-05T12:49:51.612Z,101159.78
2023-05-05T12:51:54.880Z,101161.47
2023-05-05T12:54:11.101Z,101151.56
2023-05-05T12:56:32.138Z,101149.16
2023-05-05T12:58:48.896Z,101151.28
2023-05-05T13:01:08.402Z,101160.47
2023-05-05T13:03:19.932Z,101158.50
2023-05-05T13:05:36.708Z,101153.28
2023-05-05T13:07:49.874Z,101145.91
2023-05-05T13:09:51.509Z,101143.09
2023-05-05T13:11:54.469Z,101138.41
2023-05-05T13:13:56.641Z,101141.66
2023-05-05T13:15:58.274Z,101133.59
2023-05-05T13:18:01.238Z,101134.47
2023-05-05T13:20:03.126Z,101134.88
2023-05-05T13:22:04.628Z,101136.84
2023-05-05T13:24:21.453Z,101136.72
2023-05-05T13:26:28.359Z,101136.00
2023-05-05T13:28:30.099Z,101124.56
2023-05-05T13:30:31.784Z,101131.78
2023-05-05T13:32:33.413Z,101133.59
2023-05-05T13:34:35.099Z,101131.88
2023-05-05T13:36:37.072Z,101130.22
2023-05-05T13:38:38.763Z,101127.09
2023-05-05T13:40:40.438Z,101132.47
2023-05-05T13:42:42.082Z,101135.72
2023-05-05T13:44:43.753Z,101124.81
2023-05-05T13:46:45.387Z,101120.84
2023-05-05T13:48:47.279Z,101128.06
2023-05-05T13:50:49.364Z,101119.16
2023-05-05T13:52:50.990Z,101125.38
2023-05-05T13:54:52.596Z,101125.09
2023-05-05T13:56:54.182Z,101119.84
2023-05-05T13:58:55.766Z,101115.47
2023-05-05T14:00:57.586Z,101107.41
2023-05-05T14:02:59.376Z,101117.16
2023-05-05T14:05:01.029Z,101111.78
2023-05-05T14:07:02.732Z,101104.16
2023-05-05T14:09:06.103Z,101110.81
2023-05-05T14:11:08.167Z,101117.72
2023-05-05T14:13:09.900Z,101106.97
2023-05-05T14:15:11.765Z,101112.34
2023-05-05T14:17:13.498Z,101111.22
2023-05-05T14:19:15.105Z,101108.81
2023-05-05T14:21:16.751Z,101103.44
2023-05-05T14:23:18.737Z,101105.00
2023-05-05T14:25:23.453Z,101094.50
2023-05-05T14:27:25.135Z,101103.69
2023-05-05T14:29:26.694Z,101099.00
2023-05-05T14:31:28.664Z,101105.41
2023-05-05T14:33:30.450Z,101102.25
2023-05-05T14:35:32.202Z,101101.00
2023-05-05T14:37:33.945Z,101102.84
2023-05-05T14:39:35.638Z,101105.69
2023-05-05T14:41:37.276Z,101099.47
2023-05-05T14:43:38.876Z,101109.50
2023-05-05T14:45:41.436Z,101113.50
2023-05-05T14:47:43.199Z,101115.75
2023-05-05T14:49:44.840Z,101117.31
2023-05-05T14:51:46.486Z,101113.91
2023-05-05T14:53:48.424Z,101102.56
2023-05-05T14:55:50.104Z,101101.00
2023-05-05T14:57:51.930Z,101108.63
2023-05-05T14:59:53.590Z,101108.94
2023-05-05T15:01:55.990Z,101101.00
2023-05-05T15:03:57.789Z,101100.31
2023-05-05T15:05:59.442Z,101098.84
2023-05-05T15:08:01.015Z,101108.47
2023-05-05T15:10:02.832Z,101104.81
2023-05-05T15:12:04.858Z,101106.63
2023-05-05T15:14:07.079Z,101108.47
2023-05-05T15:16:08.662Z,101115.44
2023-05-05T15:18:11.611Z,101109.06
2023-05-05T15:20:13.331Z,101108.78
2023-05-05T15:22:14.855Z,101113.84
2023-05-05T15:24:16.526Z,101126.47
2023-05-05T15:26:18.599Z,101114.03
2023-05-05T15:28:20.268Z,101114.03
2023-05-05T15:30:21.858Z,101108.78
2023-05-05T15:32:23.545Z,101113.59
2023-05-05T15:34:25.128Z,101120.81
2023-05-05T15:36:26.757Z,101123.97
2023-05-05T15:38:29.904Z,101131.03
2023-05-05T15:40:31.568Z,101133.31
2023-05-05T15:42:36.141Z,101127.38
2023-05-05T15:44:37.946Z,101127.91
2023-05-05T15:46:39.851Z,101134.16
2023-05-05T15:48:41.448Z,101133.44
2023-05-05T15:50:43.028Z,101139.94
2023-05-05T15:52:45.437Z,101138.28
2023-05-05T15:54:47.144Z,101141.09
2023-05-05T15:56:48.763Z,101141.25
2023-05-05T15:58:50.409Z,101140.81
2023-05-05T16:00:52.067Z,101138.00
2023-05-05T16:02:53.765Z,101135.69
2023-05-05T16:04:55.442Z,101133.84
2023-05-05T16:06:58.045Z,101134.44
2023-05-05T16:08:59.664Z,101137.81
2023-05-05T16:11:01.446Z,101135.13
2023-05-05T16:13:03.254Z,101136.13
2023-05-05T16:15:05.324Z,101135.41
2023-05-05T16:17:08.704Z,101133.72
2023-05-05T16:19:10.307Z,101136.25
2023-05-05T16:21:12.260Z,101135.84
2023-05-05T16:23:13.963Z,101136.97
2023-05-05T16:25:18.214Z,101129.91
2023-05-05T16:27:19.784Z,101139.09
2023-05-05T16:29:21.453Z,101135.28
2023-05-05T16:31:23.092Z,101132.59
2023-05-05T16:33:25.059Z,101140.25
2023-05-05T16:35:27.079Z,101141.09
2023-05-05T16:37:28.668Z,101130.03
2023-05-05T16:39:32.835Z,101139.50
2023-05-05T16:41:34.506Z,101139.94
2023-05-05T16:43:37.225Z,101136.97
2023-05-05T16:45:38.931Z,101142.19
2023-05-05T16:47:40.745Z,101136.53
2023-05-05T16:49:42.467Z,101138.38
2023-05-05T16:51:44.065Z,101133.84
2023-05-05T16:53:48.298Z,101134.13
2023-05-05T16:55:52.197Z,101136.97
2023-05-05T16:57:53.776Z,101125.38
2023-05-05T16:59:56.190Z,101123.69
2023-05-05T17:01:57.885Z,101129.91
2023-05-05T17:04:02.428Z,101129.91
2023-05-05T17:06:04.257Z,101127.50
2023-05-05T17:08:05.877Z,101126.50
2023-05-05T17:10:07.989Z,101118.31
2023-05-05T17:12:09.516Z,101118.16
2023-05-05T17:14:11.105Z,101121.97
2023-05-05T17:16:12.717Z,101123.97
2023-05-05T17:18:14.541Z,101122.13
2023-05-05T17:20:16.643Z,101119.28
2023-05-05T17:22:18.271Z,101125.78
2023-05-05T17:24:20.059Z,101125.94
2023-05-05T17:26:21.604Z,101130.31
2023-05-05T17:28:23.468Z,101140.69
2023-05-05T17:30:25.628Z,101150.72
2023-05-05T17:32:27.267Z,101154.69
2023-05-05T17:34:28.902Z,101171.78
2023-05-05T17:36:30.440Z,101172.09
2023-05-05T17:38:32.046Z,101178.03
2023-05-05T17:40:35.936Z,101160.34
2023-05-05T17:42:38.288Z,101156.81
2023-05-05T17:44:40.031Z,101165.44
2023-05-05T17:46:41.864Z,101154.13
2023-05-05T17:48:43.719Z,101150.28
2023-05-05T17:50:47.085Z,101155.09
2023-05-05T17:52:48.672Z,101152.13
2023-05-05T17:54:50.645Z,101154.81
2023-05-05T17:56:52.382Z,101152.28
2023-05-05T17:58:54.056Z,101156.81
2023-05-05T18:00:55.753Z,101161.47
2023-05-05T18:02:57.775Z,101161.47
2023-05-05T18:04:59.384Z,101161.03
2023-05-05T18:07:01.010Z,101163.72
2023-05-05T18:09:03.297Z,101170.25
2023-05-05T18:11:04.968Z,101164.59
2023-05-05T18:13:06.723Z,101170.81
2023-05-05T18:15:09.266Z,101173.50
2023-05-05T18:17:11.023Z,101179.19
2023-05-05T18:19:12.550Z,101175.34
2023-05-05T18:21:14.167Z,101172.94
2023-05-05T18:23:15.948Z,101175.34
2023-05-05T18:25:18.918Z,101170.66
2023-05-05T18:27:20.471Z,101173.91
2023-05-05T18:29:22.252Z,101174.91
2023-05-05T18:31:26.223Z,101175.34
2023-05-05T18:33:27.970Z,101174.34
2023-05-05T18:35:29.638Z,101168.47
2023-05-05T18:37:31.522Z,101164.31
2023-05-05T18:39:33.178Z,101175.47
2023-05-05T18:41:35.798Z,101174.63
2023-05-05T18:43:37.464Z,101176.41
2023-05-05T18:45:39.118Z,101171.59
2023-05-05T18:47:41.430Z,101172.25
2023-05-05T18:49:45.294Z,101170.16
2023-05-05T18:51:47.002Z,101178.16
2023-05-05T18:53:48.516Z,101175.19
2023-05-05T18:55:50.300Z,101180.16
2023-05-05T18:57:53.019Z,101184.81
2023-05-05T18:59:54.595Z,101191.22
2023-05-05T19:01:56.225Z,101184.97
2023-05-05T19:03:57.927Z,101201.31
2023-05-05T19:05:59.511Z,101193.34
2023-05-05T19:08:01.072Z,101198.03
2023-05-05T19:10:04.511Z,101208.66
2023-05-05T19:12:06.346Z,101214.03
2023-05-05T19:14:08.470Z,101211.66
2023-05-05T19:16:11.185Z,101214.34
2023-05-05T19:18:13.194Z,101218.03
2023-05-05T19:20:14.815Z,101216.19
2023-05-05T19:22:17.520Z,101213.50
2023-05-05T19:24:19.190Z,101208.97
2023-05-05T19:26:21.802Z,101206.81
2023-05-05T19:28:23.495Z,101206.81
2023-05-05T19:30:25.693Z,101207.81
2023-05-05T19:32:27.819Z,101206.81
2023-05-05T19:34:29.546Z,101217.59
2023-05-05T19:36:31.908Z,101224.81
2023-05-05T19:38:33.680Z,101235.59
2023-05-05T19:40:35.270Z,101237.44
2023-05-05T19:42:36.971Z,101235.44
2023-05-05T19:44:38.686Z,101236.31
2023-05-05T19:46:40.607Z,101233.44
2023-05-05T19:48:42.783Z,101236.84
2023-05-05T19:50:44.391Z,101237.53
2023-05-05T19:52:45.938Z,101242.78
2023-05-05T19:54:47.567Z,101245.50
2023-05-05T19:56:49.155Z,101253.56
2023-05-05T19:58:58.874Z,101258.94
2023-05-05T20:01:00.553Z,101257.09
2023-05-05T20:03:02.375Z,101261.66
2023-05-05T20:05:04.452Z,101267.88
2023-05-05T20:07:06.089Z,101266.88
2023-05-05T20:09:08.641Z,101266.47
2023-05-05T20:11:10.208Z,101261.09
2023-05-05T20:13:11.936Z,101267.16
2023-05-05T20:15:18.466Z,101278.66
2023-05-05T20:17:21.313Z,101281.34
2023-05-05T20:19:23.105Z,101273.25
2023-05-05T20:21:24.926Z,101270.69
2023-05-05T20:23:26.879Z,101275.97
2023-05-05T20:25:28.522Z,101266.19
2023-05-05T20:27:30.252Z,101266.19
2023-05-05T20:29:31.941Z,101262.31
2023-05-05T20:31:34.958Z,101262.03
2023-05-05T20:33:37.017Z,101252.97
2023-05-05T20:35:38.562Z,101257.38
2023-05-05T20:37:40.382Z,101250.13
2023-05-05T20:39:43.674Z,101245.59
2023-05-05T20:41:46.295Z,101251.97
2023-05-05T20:43:47.972Z,101249.28
2023-05-05T20:45:49.554Z,101250.28
2023-05-05T20:47:52.346Z,101257.38
2023-05-05T20:49:54.286Z,101248.28
2023-05-05T20:51:55.983Z,101250.00
2023-05-05T20:53:57.926Z,101251.53
2023-05-05T20:55:59.616Z,101246.00
2023-05-05T20:58:01.423Z,101241.47
2023-05-05T21:00:04.037Z,101242.47
2023-05-05T21:02:05.852Z,101244.16
2023-05-05T21:04:07.599Z,101241.47
2023-05-05T21:06:09.144Z,101239.78
2023-05-05T21:08:10.759Z,101235.22
2023-05-05T21:10:12.604Z,101238.75
2023-05-05T21:12:14.509Z,101235.06
2023-05-05T21:14:16.218Z,101236.63
2023-05-05T21:16:17.921Z,101236.31
2023-05-05T21:18:19.512Z,101236.31
2023-05-05T21:20:21.770Z,101238.00
2023-05-05T21:22:23.692Z,101238.88
2023-05-05T21:24:25.895Z,101235.31
2023-05-05T21:26:27.626Z,101234.47
2023-05-05T21:28:29.175Z,101235.31
2023-05-05T21:30:30.802Z,101231.78
2023-05-05T21:32:32.389Z,101233.50
2023-05-05T21:34:34.342Z,101235.19
2023-05-05T21:36:36.798Z,101227.94
2023-05-05T21:38:38.398Z,101233.19
2023-05-05T21:40:40.055Z,101232.19
2023-05-05T21:42:42.348Z,101233.88
2023-05-05T21:44:43.925Z,101227.47
2023-05-05T21:46:45.653Z,101228.34
2023-05-05T21:48:47.483Z,101224.78
2023-05-05T21:50:49.121Z,101226.63
2023-05-05T21:52:50.706Z,101217.72
2023-05-05T21:54:52.300Z,101220.97
2023-05-05T21:56:53.906Z,101225.38
2023-05-05T21:58:55.527Z,101214.44
2023-05-05T22:00:57.172Z,101212.44
2023-05-05T22:02:58.858Z,101213.28
2023-05-05T22:05:00.550Z,101209.88
2023-05-05T22:07:02.151Z,101208.75
2023-05-05T22:09:03.820Z,101208.03
2023-05-05T22:11:05.475Z,101204.50
2023-05-05T22:13:07.172Z,101205.50
2023-05-05T22:15:09.360Z,101198.25
2023-05-05T22:17:11.321Z,101199.81
2023-05-05T22:19:12.987Z,101196.94
2023-05-05T22:21:14.668Z,101198.66
2023-05-05T22:23:16.490Z,101200.19
2023-05-05T22:25:18.167Z,101189.41
2023-05-05T22:27:19.779Z,101193.81
2023-05-05T22:29:21.356Z,101197.50
2023-05-05T22:31:23.099Z,101193.13
2023-05-05T22:33:24.814Z,101196.81
2023-05-05T22:35:26.873Z,101190.59
2023-05-05T22:37:28.448Z,101187.88
2023-05-05T22:39:30.586Z,101186.88
2023-05-05T22:41:32.274Z,101183.03
2023-05-05T22:43:33.842Z,101189.09
2023-05-05T22:45:35.750Z,101191.81
2023-05-05T22:47:37.390Z,101187.28
2023-05-05T22:49:39.149Z,101188.97
2023-05-05T22:51:40.868Z,101192.69
2023-05-05T22:53:42.457Z,101191.97
2023-05-05T22:55:44.090Z,101193.66
2023-05-05T22:57:46.013Z,101192.81
2023-05-05T22:59:47.662Z,101191.97
2023-05-05T23:01:49.347Z,101189.97
2023-05-05T23:03:51.122Z,101187.13
2023-05-05T23:05:52.839Z,101187.81
2023-05-05T23:07:54.540Z,101183.28
2023-05-05T23:09:56.106Z,101179.75
2023-05-05T23:11:57.755Z,101184.25
2023-05-05T23:13:59.322Z,101179.88
2023-05-05T23:16:01.172Z,101185.25
2023-05-05T23:18:03.086Z,101184.59
2023-05-05T23:20:05.559Z,101188.13
2023-05-05T23:22:07.116Z,101188.97
2023-05-05T23:24:09.029Z,101186.94
2023-05-05T23:26:13.069Z,101181.44
2023-05-05T23:28:14.621Z,101171.50
2023-05-05T23:30:16.388Z,101179.28